sensor_id;sensor_type;location;lat;lon;timestamp;P1;durP1;ratioP1;P2;durP2;ratioP2
75837;SDS011;64480;52.040;113.502;2023-07-29T00:02:04;20.67;;;9.95;;
75837;SDS011;64480;52.040;113.502;2023-07-29T00:05:08;16.58;;;10.23;;
75837;SDS011;64480;52.040;113.502;2023-07-29T00:08:13;18.77;;;10.05;;
75837;SDS011;64480;52.040;113.502;2023-07-29T00:11:16;13.15;;;10.73;;
75837;SDS011;64480;52.040;113.502;2023-07-29T00:14:20;14.27;;;10.02;;
75837;SDS011;64480;52.040;113.502;2023-07-29T00:17:25;14.10;;;9.57;;
75837;SDS011;64480;52.040;113.502;2023-07-29T00:20:30;16.92;;;10.75;;
75837;SDS011;64480;52.040;113.502;2023-07-29T00:23:34;17.05;;;9.10;;
75837;SDS011;64480;52.040;113.502;2023-07-29T00:26:38;14.23;;;10.00;;
75837;SDS011;64480;52.040;113.502;2023-07-29T00:29:42;12.43;;;8.23;;
75837;SDS011;64480;52.040;113.502;2023-07-29T00:32:48;11.15;;;7.70;;
75837;SDS011;64480;52.040;113.502;2023-07-29T00:35:52;13.02;;;7.82;;
75837;SDS011;64480;52.040;113.502;2023-07-29T00:38:56;16.63;;;7.38;;
75837;SDS011;64480;52.040;113.502;2023-07-29T00:42:00;9.25;;;5.97;;
75837;SDS011;64480;52.040;113.502;2023-07-29T00:45:05;7.00;;;5.90;;
75837;SDS011;64480;52.040;113.502;2023-07-29T00:48:11;7.97;;;6.40;;
75837;SDS011;64480;52.040;113.502;2023-07-29T00:51:15;8.27;;;4.70;;
75837;SDS011;64480;52.040;113.502;2023-07-29T00:54:19;17.80;;;7.03;;
75837;SDS011;64480;52.040;113.502;2023-07-29T00:57:27;17.88;;;6.07;;
75837;SDS011;64480;52.040;113.502;2023-07-29T01:00:34;14.82;;;6.50;;
75837;SDS011;64480;52.040;113.502;2023-07-29T01:03:39;21.38;;;6.38;;
75837;SDS011;64480;52.040;113.502;2023-07-29T01:10:01;10.38;;;5.75;;
75837;SDS011;64480;52.040;113.502;2023-07-29T01:16:52;29.23;;;7.18;;
75837;SDS011;64480;52.040;113.502;2023-07-29T01:20:02;20.17;;;6.72;;
75837;SDS011;64480;52.040;113.502;2023-07-29T01:23:11;26.17;;;7.35;;
75837;SDS011;64480;52.040;113.502;2023-07-29T01:26:18;27.98;;;8.18;;
75837;SDS011;64480;52.040;113.502;2023-07-29T01:29:21;20.67;;;5.93;;
75837;SDS011;64480;52.040;113.502;2023-07-29T01:39:10;16.77;;;4.60;;
75837;SDS011;64480;52.040;113.502;2023-07-29T01:42:16;24.33;;;5.80;;
75837;SDS011;64480;52.040;113.502;2023-07-29T01:45:23;17.70;;;5.55;;
75837;SDS011;64480;52.040;113.502;2023-07-29T01:48:31;13.38;;;5.00;;
75837;SDS011;64480;52.040;113.502;2023-07-29T01:51:35;18.25;;;6.18;;
75837;SDS011;64480;52.040;113.502;2023-07-29T01:54:38;17.60;;;5.22;;
75837;SDS011;64480;52.040;113.502;2023-07-29T01:57:42;30.92;;;6.20;;
75837;SDS011;64480;52.040;113.502;2023-07-29T02:00:49;15.00;;;5.30;;
75837;SDS011;64480;52.040;113.502;2023-07-29T02:03:53;17.10;;;5.53;;
75837;SDS011;64480;52.040;113.502;2023-07-29T02:07:00;16.92;;;5.22;;
75837;SDS011;64480;52.040;113.502;2023-07-29T02:10:04;21.33;;;6.35;;
75837;SDS011;64480;52.040;113.502;2023-07-29T02:13:08;23.10;;;7.03;;
75837;SDS011;64480;52.040;113.502;2023-07-29T02:16:26;18.17;;;6.82;;
75837;SDS011;64480;52.040;113.502;2023-07-29T02:19:44;24.42;;;7.80;;
75837;SDS011;64480;52.040;113.502;2023-07-29T02:22:49;19.60;;;6.07;;
75837;SDS011;64480;52.040;113.502;2023-07-29T02:25:56;14.30;;;5.82;;
75837;SDS011;64480;52.040;113.502;2023-07-29T02:29:03;17.95;;;5.80;;
75837;SDS011;64480;52.040;113.502;2023-07-29T02:32:13;20.95;;;5.88;;
75837;SDS011;64480;52.040;113.502;2023-07-29T02:35:17;19.92;;;5.13;;
75837;SDS011;64480;52.040;113.502;2023-07-29T02:38:24;15.68;;;5.93;;
75837;SDS011;64480;52.040;113.502;2023-07-29T02:41:28;25.35;;;5.90;;
75837;SDS011;64480;52.040;113.502;2023-07-29T02:44:31;25.73;;;7.68;;
75837;SDS011;64480;52.040;113.502;2023-07-29T02:47:36;20.33;;;5.70;;
75837;SDS011;64480;52.040;113.502;2023-07-29T02:50:40;18.38;;;5.65;;
75837;SDS011;64480;52.040;113.502;2023-07-29T02:53:47;18.02;;;5.88;;
75837;SDS011;64480;52.040;113.502;2023-07-29T02:56:51;17.30;;;6.13;;
75837;SDS011;64480;52.040;113.502;2023-07-29T03:00:08;18.88;;;6.03;;
75837;SDS011;64480;52.040;113.502;2023-07-29T03:03:19;14.27;;;5.55;;
75837;SDS011;64480;52.040;113.502;2023-07-29T03:06:24;19.75;;;7.00;;
75837;SDS011;64480;52.040;113.502;2023-07-29T03:09:31;13.90;;;6.38;;
75837;SDS011;64480;52.040;113.502;2023-07-29T03:12:36;26.38;;;6.53;;
75837;SDS011;64480;52.040;113.502;2023-07-29T03:15:44;19.35;;;6.05;;
75837;SDS011;64480;52.040;113.502;2023-07-29T03:18:52;14.85;;;5.60;;
75837;SDS011;64480;52.040;113.502;2023-07-29T03:22:00;20.25;;;6.53;;
75837;SDS011;64480;52.040;113.502;2023-07-29T03:25:05;10.85;;;5.18;;
75837;SDS011;64480;52.040;113.502;2023-07-29T03:28:09;13.23;;;4.68;;
75837;SDS011;64480;52.040;113.502;2023-07-29T03:31:17;16.77;;;5.53;;
75837;SDS011;64480;52.040;113.502;2023-07-29T03:34:22;16.65;;;6.30;;
75837;SDS011;64480;52.040;113.502;2023-07-29T03:37:30;19.08;;;5.88;;
75837;SDS011;64480;52.040;113.502;2023-07-29T03:40:38;15.10;;;5.80;;
75837;SDS011;64480;52.040;113.502;2023-07-29T03:43:46;14.52;;;5.43;;
75837;SDS011;64480;52.040;113.502;2023-07-29T03:46:50;22.05;;;6.45;;
75837;SDS011;64480;52.040;113.502;2023-07-29T03:50:05;16.48;;;5.88;;
75837;SDS011;64480;52.040;113.502;2023-07-29T03:53:09;13.75;;;6.10;;
75837;SDS011;64480;52.040;113.502;2023-07-29T03:56:20;11.85;;;5.20;;
75837;SDS011;64480;52.040;113.502;2023-07-29T03:59:27;13.90;;;5.63;;
75837;SDS011;64480;52.040;113.502;2023-07-29T04:02:32;34.03;;;9.82;;
75837;SDS011;64480;52.040;113.502;2023-07-29T04:05:40;11.32;;;5.35;;
75837;SDS011;64480;52.040;113.502;2023-07-29T04:08:45;16.00;;;5.63;;
75837;SDS011;64480;52.040;113.502;2023-07-29T04:11:51;14.77;;;6.07;;
75837;SDS011;64480;52.040;113.502;2023-07-29T04:14:56;14.15;;;7.68;;
75837;SDS011;64480;52.040;113.502;2023-07-29T04:18:01;15.18;;;5.35;;
75837;SDS011;64480;52.040;113.502;2023-07-29T04:21:07;15.52;;;6.32;;
75837;SDS011;64480;52.040;113.502;2023-07-29T04:24:12;20.10;;;5.28;;
75837;SDS011;64480;52.040;113.502;2023-07-29T04:27:16;13.30;;;4.85;;
75837;SDS011;64480;52.040;113.502;2023-07-29T04:30:20;28.33;;;10.57;;
75837;SDS011;64480;52.040;113.502;2023-07-29T04:33:24;14.63;;;5.20;;
75837;SDS011;64480;52.040;113.502;2023-07-29T04:36:28;13.27;;;6.03;;
75837;SDS011;64480;52.040;113.502;2023-07-29T04:39:32;13.85;;;5.28;;
75837;SDS011;64480;52.040;113.502;2023-07-29T04:42:40;13.82;;;5.38;;
75837;SDS011;64480;52.040;113.502;2023-07-29T04:45:46;10.60;;;4.60;;
75837;SDS011;64480;52.040;113.502;2023-07-29T04:48:49;9.68;;;4.88;;
75837;SDS011;64480;52.040;113.502;2023-07-29T04:51:54;9.40;;;4.97;;
75837;SDS011;64480;52.040;113.502;2023-07-29T04:55:00;13.85;;;4.68;;
75837;SDS011;64480;52.040;113.502;2023-07-29T04:58:05;11.57;;;4.80;;
75837;SDS011;64480;52.040;113.502;2023-07-29T05:01:12;10.52;;;5.00;;
75837;SDS011;64480;52.040;113.502;2023-07-29T05:04:16;13.13;;;4.68;;
75837;SDS011;64480;52.040;113.502;2023-07-29T05:07:24;9.60;;;4.38;;
75837;SDS011;64480;52.040;113.502;2023-07-29T05:10:32;10.32;;;4.65;;
75837;SDS011;64480;52.040;113.502;2023-07-29T05:13:36;11.52;;;4.47;;
75837;SDS011;64480;52.040;113.502;2023-07-29T05:16:55;9.18;;;3.90;;
75837;SDS011;64480;52.040;113.502;2023-07-29T05:19:59;8.55;;;4.68;;
75837;SDS011;64480;52.040;113.502;2023-07-29T05:23:09;17.77;;;5.93;;
75837;SDS011;64480;52.040;113.502;2023-07-29T05:26:15;9.38;;;4.82;;
75837;SDS011;64480;52.040;113.502;2023-07-29T05:29:20;10.15;;;4.97;;
75837;SDS011;64480;52.040;113.502;2023-07-29T05:32:23;12.23;;;4.25;;
75837;SDS011;64480;52.040;113.502;2023-07-29T05:35:28;8.68;;;4.32;;
75837;SDS011;64480;52.040;113.502;2023-07-29T05:38:33;11.60;;;4.53;;
75837;SDS011;64480;52.040;113.502;2023-07-29T05:41:37;10.75;;;4.28;;
75837;SDS011;64480;52.040;113.502;2023-07-29T05:44:41;10.35;;;4.07;;
75837;SDS011;64480;52.040;113.502;2023-07-29T05:47:46;11.43;;;4.60;;
75837;SDS011;64480;52.040;113.502;2023-07-29T05:50:52;8.70;;;3.75;;
75837;SDS011;64480;52.040;113.502;2023-07-29T05:53:58;11.52;;;4.20;;
75837;SDS011;64480;52.040;113.502;2023-07-29T05:57:03;11.55;;;5.22;;
75837;SDS011;64480;52.040;113.502;2023-07-29T06:00:08;6.82;;;3.92;;
75837;SDS011;64480;52.040;113.502;2023-07-29T06:03:13;8.55;;;4.03;;
75837;SDS011;64480;52.040;113.502;2023-07-29T06:06:17;9.82;;;4.35;;
75837;SDS011;64480;52.040;113.502;2023-07-29T06:09:22;12.23;;;3.67;;
75837;SDS011;64480;52.040;113.502;2023-07-29T06:12:29;5.13;;;3.05;;
75837;SDS011;64480;52.040;113.502;2023-07-29T06:15:34;8.48;;;3.58;;
75837;SDS011;64480;52.040;113.502;2023-07-29T06:18:38;6.03;;;3.83;;
75837;SDS011;64480;52.040;113.502;2023-07-29T06:21:43;5.35;;;3.63;;
75837;SDS011;64480;52.040;113.502;2023-07-29T06:24:47;5.07;;;3.28;;
75837;SDS011;64480;52.040;113.502;2023-07-29T06:27:52;6.45;;;3.42;;
75837;SDS011;64480;52.040;113.502;2023-07-29T06:30:55;5.35;;;3.13;;
75837;SDS011;64480;52.040;113.502;2023-07-29T06:34:01;9.65;;;4.05;;
75837;SDS011;64480;52.040;113.502;2023-07-29T06:37:06;6.47;;;3.58;;
75837;SDS011;64480;52.040;113.502;2023-07-29T06:40:11;5.45;;;3.65;;
75837;SDS011;64480;52.040;113.502;2023-07-29T06:43:16;6.57;;;4.45;;
75837;SDS011;64480;52.040;113.502;2023-07-29T06:46:21;13.23;;;4.00;;
75837;SDS011;64480;52.040;113.502;2023-07-29T06:49:25;8.23;;;3.85;;
75837;SDS011;64480;52.040;113.502;2023-07-29T06:52:29;14.00;;;3.45;;
75837;SDS011;64480;52.040;113.502;2023-07-29T06:55:32;6.82;;;3.35;;
75837;SDS011;64480;52.040;113.502;2023-07-29T06:58:44;13.65;;;3.65;;
75837;SDS011;64480;52.040;113.502;2023-07-29T07:01:48;42.20;;;4.88;;
75837;SDS011;64480;52.040;113.502;2023-07-29T07:05:06;4.82;;;3.72;;
75837;SDS011;64480;52.040;113.502;2023-07-29T07:08:27;11.00;;;3.67;;
75837;SDS011;64480;52.040;113.502;2023-07-29T07:11:33;5.93;;;3.85;;
75837;SDS011;64480;52.040;113.502;2023-07-29T07:14:38;16.20;;;5.28;;
75837;SDS011;64480;52.040;113.502;2023-07-29T07:17:44;4.78;;;3.10;;
75837;SDS011;64480;52.040;113.502;2023-07-29T07:20:50;7.57;;;3.58;;
75837;SDS011;64480;52.040;113.502;2023-07-29T07:27:00;8.57;;;3.78;;
75837;SDS011;64480;52.040;113.502;2023-07-29T07:30:18;14.52;;;3.67;;
75837;SDS011;64480;52.040;113.502;2023-07-29T07:33:23;9.98;;;3.08;;
75837;SDS011;64480;52.040;113.502;2023-07-29T07:36:27;9.45;;;3.85;;
75837;SDS011;64480;52.040;113.502;2023-07-29T07:39:32;5.28;;;2.90;;
75837;SDS011;64480;52.040;113.502;2023-07-29T07:42:38;6.65;;;3.78;;
75837;SDS011;64480;52.040;113.502;2023-07-29T07:45:42;21.17;;;4.40;;
75837;SDS011;64480;52.040;113.502;2023-07-29T07:48:47;8.73;;;3.10;;
75837;SDS011;64480;52.040;113.502;2023-07-29T07:51:52;8.45;;;3.30;;
75837;SDS011;64480;52.040;113.502;2023-07-29T07:54:58;7.40;;;3.35;;
75837;SDS011;64480;52.040;113.502;2023-07-29T07:58:03;7.70;;;3.47;;
75837;SDS011;64480;52.040;113.502;2023-07-29T08:01:08;7.25;;;2.90;;
75837;SDS011;64480;52.040;113.502;2023-07-29T08:04:18;5.28;;;2.92;;
75837;SDS011;64480;52.040;113.502;2023-07-29T08:07:24;7.90;;;3.70;;
75837;SDS011;64480;52.040;113.502;2023-07-29T08:10:28;6.35;;;3.13;;
75837;SDS011;64480;52.040;113.502;2023-07-29T08:13:33;9.85;;;4.18;;
75837;SDS011;64480;52.040;113.502;2023-07-29T08:16:37;4.95;;;3.15;;
75837;SDS011;64480;52.040;113.502;2023-07-29T08:19:42;4.53;;;3.33;;
75837;SDS011;64480;52.040;113.502;2023-07-29T08:22:46;7.68;;;4.20;;
75837;SDS011;64480;52.040;113.502;2023-07-29T08:26:03;9.65;;;4.35;;
75837;SDS011;64480;52.040;113.502;2023-07-29T08:29:10;6.15;;;3.90;;
75837;SDS011;64480;52.040;113.502;2023-07-29T08:35:22;5.18;;;3.28;;
75837;SDS011;64480;52.040;113.502;2023-07-29T08:38:27;5.72;;;3.42;;
75837;SDS011;64480;52.040;113.502;2023-07-29T08:45:07;17.40;;;4.13;;
75837;SDS011;64480;52.040;113.502;2023-07-29T08:48:13;5.15;;;3.22;;
75837;SDS011;64480;52.040;113.502;2023-07-29T08:51:24;6.55;;;3.25;;
75837;SDS011;64480;52.040;113.502;2023-07-29T08:54:32;10.63;;;3.58;;
75837;SDS011;64480;52.040;113.502;2023-07-29T08:57:49;6.82;;;3.20;;
75837;SDS011;64480;52.040;113.502;2023-07-29T09:01:00;5.95;;;3.45;;
75837;SDS011;64480;52.040;113.502;2023-07-29T09:04:08;9.68;;;3.83;;
75837;SDS011;64480;52.040;113.502;2023-07-29T09:07:16;8.05;;;4.22;;
75837;SDS011;64480;52.040;113.502;2023-07-29T09:10:36;5.97;;;3.40;;
75837;SDS011;64480;52.040;113.502;2023-07-29T09:13:44;8.05;;;3.30;;
75837;SDS011;64480;52.040;113.502;2023-07-29T09:16:48;6.22;;;3.95;;
75837;SDS011;64480;52.040;113.502;2023-07-29T09:19:57;5.15;;;3.30;;
75837;SDS011;64480;52.040;113.502;2023-07-29T09:23:09;13.13;;;4.15;;
75837;SDS011;64480;52.040;113.502;2023-07-29T09:26:14;12.32;;;4.07;;
75837;SDS011;64480;52.040;113.502;2023-07-29T09:29:35;9.25;;;3.65;;
75837;SDS011;64480;52.040;113.502;2023-07-29T09:32:41;6.60;;;3.33;;
75837;SDS011;64480;52.040;113.502;2023-07-29T09:35:58;6.45;;;3.83;;
75837;SDS011;64480;52.040;113.502;2023-07-29T09:39:10;5.47;;;3.40;;
75837;SDS011;64480;52.040;113.502;2023-07-29T09:42:25;8.13;;;3.88;;
75837;SDS011;64480;52.040;113.502;2023-07-29T09:45:29;7.20;;;3.85;;
75837;SDS011;64480;52.040;113.502;2023-07-29T09:48:46;8.80;;;3.80;;
75837;SDS011;64480;52.040;113.502;2023-07-29T09:51:51;11.13;;;4.22;;
75837;SDS011;64480;52.040;113.502;2023-07-29T09:54:58;10.45;;;4.13;;
75837;SDS011;64480;52.040;113.502;2023-07-29T09:58:02;6.90;;;4.18;;
75837;SDS011;64480;52.040;113.502;2023-07-29T10:01:07;5.57;;;3.67;;
75837;SDS011;64480;52.040;113.502;2023-07-29T10:04:24;13.63;;;4.05;;
75837;SDS011;64480;52.040;113.502;2023-07-29T10:07:34;4.97;;;3.40;;
75837;SDS011;64480;52.040;113.502;2023-07-29T10:10:46;12.73;;;4.57;;
75837;SDS011;64480;52.040;113.502;2023-07-29T10:14:05;6.45;;;4.40;;
75837;SDS011;64480;52.040;113.502;2023-07-29T10:17:11;7.88;;;3.90;;
75837;SDS011;64480;52.040;113.502;2023-07-29T10:20:15;7.20;;;3.90;;
75837;SDS011;64480;52.040;113.502;2023-07-29T10:23:21;9.85;;;4.03;;
75837;SDS011;64480;52.040;113.502;2023-07-29T10:26:26;20.05;;;4.30;;
75837;SDS011;64480;52.040;113.502;2023-07-29T10:29:39;11.63;;;4.63;;
75837;SDS011;64480;52.040;113.502;2023-07-29T10:32:47;12.45;;;4.25;;
75837;SDS011;64480;52.040;113.502;2023-07-29T10:35:53;7.43;;;4.40;;
75837;SDS011;64480;52.040;113.502;2023-07-29T10:38:58;10.65;;;4.25;;
75837;SDS011;64480;52.040;113.502;2023-07-29T10:42:05;5.93;;;3.75;;
75837;SDS011;64480;52.040;113.502;2023-07-29T10:45:21;9.63;;;4.25;;
75837;SDS011;64480;52.040;113.502;2023-07-29T10:51:43;12.05;;;4.80;;
75837;SDS011;64480;52.040;113.502;2023-07-29T10:55:00;10.02;;;4.25;;
75837;SDS011;64480;52.040;113.502;2023-07-29T10:58:10;17.60;;;7.03;;
75837;SDS011;64480;52.040;113.502;2023-07-29T11:01:26;15.15;;;4.55;;
75837;SDS011;64480;52.040;113.502;2023-07-29T11:04:52;12.50;;;5.00;;
75837;SDS011;64480;52.040;113.502;2023-07-29T11:07:56;25.17;;;4.70;;
75837;SDS011;64480;52.040;113.502;2023-07-29T11:11:07;17.58;;;5.32;;
75837;SDS011;64480;52.040;113.502;2023-07-29T11:14:16;10.75;;;4.63;;
75837;SDS011;64480;52.040;113.502;2023-07-29T11:17:23;17.40;;;6.28;;
75837;SDS011;64480;52.040;113.502;2023-07-29T11:20:29;15.13;;;5.25;;
75837;SDS011;64480;52.040;113.502;2023-07-29T11:23:38;16.95;;;5.68;;
75837;SDS011;64480;52.040;113.502;2023-07-29T11:26:48;12.88;;;6.30;;
75837;SDS011;64480;52.040;113.502;2023-07-29T11:29:59;11.63;;;6.78;;
75837;SDS011;64480;52.040;113.502;2023-07-29T11:33:05;12.63;;;7.70;;
75837;SDS011;64480;52.040;113.502;2023-07-29T11:36:19;10.52;;;7.18;;
75837;SDS011;64480;52.040;113.502;2023-07-29T11:39:24;9.40;;;5.22;;
75837;SDS011;64480;52.040;113.502;2023-07-29T11:42:31;6.90;;;4.60;;
75837;SDS011;64480;52.040;113.502;2023-07-29T11:45:40;10.60;;;5.70;;
75837;SDS011;64480;52.040;113.502;2023-07-29T11:48:54;13.88;;;6.65;;
75837;SDS011;64480;52.040;113.502;2023-07-29T11:51:57;11.73;;;5.75;;
75837;SDS011;64480;52.040;113.502;2023-07-29T11:55:04;8.50;;;5.10;;
75837;SDS011;64480;52.040;113.502;2023-07-29T11:58:09;15.35;;;7.63;;
75837;SDS011;64480;52.040;113.502;2023-07-29T12:01:14;12.38;;;6.97;;
75837;SDS011;64480;52.040;113.502;2023-07-29T12:04:20;10.85;;;5.40;;
75837;SDS011;64480;52.040;113.502;2023-07-29T12:07:26;12.05;;;5.75;;
75837;SDS011;64480;52.040;113.502;2023-07-29T12:10:31;9.13;;;4.82;;
75837;SDS011;64480;52.040;113.502;2023-07-29T12:13:38;11.30;;;5.03;;
75837;SDS011;64480;52.040;113.502;2023-07-29T12:16:50;8.20;;;4.72;;
75837;SDS011;64480;52.040;113.502;2023-07-29T12:19:56;7.63;;;4.53;;
75837;SDS011;64480;52.040;113.502;2023-07-29T12:23:00;8.60;;;5.00;;
75837;SDS011;64480;52.040;113.502;2023-07-29T12:26:08;11.55;;;5.63;;
75837;SDS011;64480;52.040;113.502;2023-07-29T12:29:13;7.10;;;4.50;;
75837;SDS011;64480;52.040;113.502;2023-07-29T12:32:18;10.70;;;4.78;;
75837;SDS011;64480;52.040;113.502;2023-07-29T12:35:23;9.95;;;5.50;;
75837;SDS011;64480;52.040;113.502;2023-07-29T12:38:28;11.75;;;5.13;;
75837;SDS011;64480;52.040;113.502;2023-07-29T12:41:33;11.55;;;6.03;;
75837;SDS011;64480;52.040;113.502;2023-07-29T12:44:38;13.05;;;5.70;;
75837;SDS011;64480;52.040;113.502;2023-07-29T12:47:42;12.43;;;5.43;;
75837;SDS011;64480;52.040;113.502;2023-07-29T12:50:48;10.85;;;5.22;;
75837;SDS011;64480;52.040;113.502;2023-07-29T12:53:53;12.85;;;5.03;;
75837;SDS011;64480;52.040;113.502;2023-07-29T12:57:03;14.55;;;6.53;;
75837;SDS011;64480;52.040;113.502;2023-07-29T13:00:10;9.70;;;5.22;;
75837;SDS011;64480;52.040;113.502;2023-07-29T13:03:15;15.38;;;5.70;;
75837;SDS011;64480;52.040;113.502;2023-07-29T13:06:20;14.13;;;6.88;;
75837;SDS011;64480;52.040;113.502;2023-07-29T13:09:24;13.25;;;6.88;;
75837;SDS011;64480;52.040;113.502;2023-07-29T13:12:41;10.07;;;5.80;;
75837;SDS011;64480;52.040;113.502;2023-07-29T13:15:45;18.80;;;7.18;;
75837;SDS011;64480;52.040;113.502;2023-07-29T13:18:49;15.32;;;7.05;;
75837;SDS011;64480;52.040;113.502;2023-07-29T13:21:54;13.35;;;7.03;;
75837;SDS011;64480;52.040;113.502;2023-07-29T13:25:17;16.98;;;7.43;;
75837;SDS011;64480;52.040;113.502;2023-07-29T13:28:21;26.08;;;9.23;;
75837;SDS011;64480;52.040;113.502;2023-07-29T13:31:29;22.08;;;10.77;;
75837;SDS011;64480;52.040;113.502;2023-07-29T13:34:33;21.52;;;11.63;;
75837;SDS011;64480;52.040;113.502;2023-07-29T13:37:38;22.95;;;12.00;;
75837;SDS011;64480;52.040;113.502;2023-07-29T13:40:41;20.50;;;11.75;;
75837;SDS011;64480;52.040;113.502;2023-07-29T13:43:45;24.17;;;11.05;;
75837;SDS011;64480;52.040;113.502;2023-07-29T13:46:49;18.75;;;11.35;;
75837;SDS011;64480;52.040;113.502;2023-07-29T13:49:53;20.13;;;10.80;;
75837;SDS011;64480;52.040;113.502;2023-07-29T13:52:59;20.27;;;11.40;;
75837;SDS011;64480;52.040;113.502;2023-07-29T13:56:04;22.23;;;11.23;;
75837;SDS011;64480;52.040;113.502;2023-07-29T13:59:08;18.85;;;10.82;;
75837;SDS011;64480;52.040;113.502;2023-07-29T14:02:12;19.88;;;11.88;;
75837;SDS011;64480;52.040;113.502;2023-07-29T14:05:16;25.00;;;13.20;;
75837;SDS011;64480;52.040;113.502;2023-07-29T14:08:20;25.00;;;13.95;;
75837;SDS011;64480;52.040;113.502;2023-07-29T14:11:26;23.95;;;12.90;;
75837;SDS011;64480;52.040;113.502;2023-07-29T14:14:29;22.92;;;12.25;;
75837;SDS011;64480;52.040;113.502;2023-07-29T14:17:34;20.35;;;10.07;;
75837;SDS011;64480;52.040;113.502;2023-07-29T14:20:38;19.13;;;10.85;;
75837;SDS011;64480;52.040;113.502;2023-07-29T14:23:42;17.40;;;9.35;;
75837;SDS011;64480;52.040;113.502;2023-07-29T14:26:46;16.98;;;9.80;;
75837;SDS011;64480;52.040;113.502;2023-07-29T14:29:49;20.67;;;10.43;;
75837;SDS011;64480;52.040;113.502;2023-07-29T14:32:53;18.77;;;8.98;;
75837;SDS011;64480;52.040;113.502;2023-07-29T14:35:56;14.80;;;8.55;;
75837;SDS011;64480;52.040;113.502;2023-07-29T14:39:00;12.55;;;7.38;;
75837;SDS011;64480;52.040;113.502;2023-07-29T14:42:04;12.20;;;7.47;;
75837;SDS011;64480;52.040;113.502;2023-07-29T14:45:08;13.35;;;7.18;;
75837;SDS011;64480;52.040;113.502;2023-07-29T14:48:13;17.17;;;7.00;;
75837;SDS011;64480;52.040;113.502;2023-07-29T14:51:17;18.27;;;7.47;;
75837;SDS011;64480;52.040;113.502;2023-07-29T14:54:22;13.18;;;6.68;;
75837;SDS011;64480;52.040;113.502;2023-07-29T14:57:25;13.05;;;7.55;;
75837;SDS011;64480;52.040;113.502;2023-07-29T15:00:30;14.70;;;7.40;;
75837;SDS011;64480;52.040;113.502;2023-07-29T15:03:33;11.85;;;7.35;;
75837;SDS011;64480;52.040;113.502;2023-07-29T15:06:37;14.15;;;7.50;;
75837;SDS011;64480;52.040;113.502;2023-07-29T15:09:41;11.35;;;6.80;;
75837;SDS011;64480;52.040;113.502;2023-07-29T15:12:45;13.82;;;7.88;;
75837;SDS011;64480;52.040;113.502;2023-07-29T15:15:49;22.55;;;8.32;;
75837;SDS011;64480;52.040;113.502;2023-07-29T15:18:54;22.73;;;8.95;;
75837;SDS011;64480;52.040;113.502;2023-07-29T15:21:57;19.00;;;8.90;;
75837;SDS011;64480;52.040;113.502;2023-07-29T15:25:02;20.27;;;9.68;;
75837;SDS011;64480;52.040;113.502;2023-07-29T15:28:05;15.13;;;9.80;;
75837;SDS011;64480;52.040;113.502;2023-07-29T15:31:09;15.52;;;9.98;;
75837;SDS011;64480;52.040;113.502;2023-07-29T15:34:13;17.98;;;9.85;;
75837;SDS011;64480;52.040;113.502;2023-07-29T15:37:17;19.00;;;10.65;;
75837;SDS011;64480;52.040;113.502;2023-07-29T15:40:21;20.85;;;9.85;;
75837;SDS011;64480;52.040;113.502;2023-07-29T15:43:32;19.38;;;10.43;;
75837;SDS011;64480;52.040;113.502;2023-07-29T15:46:36;19.05;;;8.38;;
75837;SDS011;64480;52.040;113.502;2023-07-29T15:49:41;14.38;;;8.40;;
75837;SDS011;64480;52.040;113.502;2023-07-29T15:52:45;13.75;;;7.05;;
75837;SDS011;64480;52.040;113.502;2023-07-29T15:55:50;13.18;;;8.18;;
75837;SDS011;64480;52.040;113.502;2023-07-29T15:58:53;14.13;;;7.35;;
75837;SDS011;64480;52.040;113.502;2023-07-29T16:01:59;17.77;;;7.45;;
75837;SDS011;64480;52.040;113.502;2023-07-29T16:05:03;12.25;;;6.93;;
75837;SDS011;64480;52.040;113.502;2023-07-29T16:08:09;15.20;;;8.38;;
75837;SDS011;64480;52.040;113.502;2023-07-29T16:11:14;15.02;;;8.38;;
75837;SDS011;64480;52.040;113.502;2023-07-29T16:14:18;11.68;;;7.97;;
75837;SDS011;64480;52.040;113.502;2023-07-29T16:17:26;15.73;;;8.30;;
75837;SDS011;64480;52.040;113.502;2023-07-29T16:20:31;15.23;;;8.20;;
75837;SDS011;64480;52.040;113.502;2023-07-29T16:23:35;14.13;;;7.55;;
75837;SDS011;64480;52.040;113.502;2023-07-29T16:26:39;15.18;;;7.80;;
75837;SDS011;64480;52.040;113.502;2023-07-29T16:29:46;14.95;;;8.20;;
75837;SDS011;64480;52.040;113.502;2023-07-29T16:32:50;24.63;;;8.10;;
75837;SDS011;64480;52.040;113.502;2023-07-29T16:35:54;13.00;;;7.88;;
75837;SDS011;64480;52.040;113.502;2023-07-29T16:38:59;13.90;;;8.07;;
75837;SDS011;64480;52.040;113.502;2023-07-29T16:42:03;16.42;;;8.50;;
75837;SDS011;64480;52.040;113.502;2023-07-29T16:45:07;14.85;;;7.22;;
75837;SDS011;64480;52.040;113.502;2023-07-29T16:48:12;11.05;;;6.78;;
75837;SDS011;64480;52.040;113.502;2023-07-29T16:51:17;12.48;;;7.53;;
75837;SDS011;64480;52.040;113.502;2023-07-29T16:54:21;13.05;;;7.65;;
75837;SDS011;64480;52.040;113.502;2023-07-29T16:57:24;18.58;;;8.30;;
75837;SDS011;64480;52.040;113.502;2023-07-29T17:00:29;14.23;;;7.55;;
75837;SDS011;64480;52.040;113.502;2023-07-29T17:03:32;11.13;;;7.65;;
75837;SDS011;64480;52.040;113.502;2023-07-29T17:06:38;12.23;;;7.20;;
75837;SDS011;64480;52.040;113.502;2023-07-29T17:09:42;11.80;;;7.97;;
75837;SDS011;64480;52.040;113.502;2023-07-29T17:12:48;12.85;;;7.13;;
75837;SDS011;64480;52.040;113.502;2023-07-29T17:15:52;17.20;;;11.57;;
75837;SDS011;64480;52.040;113.502;2023-07-29T17:18:56;11.85;;;6.72;;
75837;SDS011;64480;52.040;113.502;2023-07-29T17:22:01;9.40;;;6.38;;
75837;SDS011;64480;52.040;113.502;2023-07-29T17:25:06;11.15;;;6.70;;
75837;SDS011;64480;52.040;113.502;2023-07-29T17:28:10;16.05;;;7.10;;
75837;SDS011;64480;52.040;113.502;2023-07-29T17:31:14;13.35;;;6.88;;
75837;SDS011;64480;52.040;113.502;2023-07-29T17:34:18;9.90;;;6.47;;
75837;SDS011;64480;52.040;113.502;2023-07-29T17:37:24;12.10;;;7.30;;
75837;SDS011;64480;52.040;113.502;2023-07-29T17:40:27;11.65;;;6.72;;
75837;SDS011;64480;52.040;113.502;2023-07-29T17:43:32;11.70;;;5.97;;
75837;SDS011;64480;52.040;113.502;2023-07-29T17:46:35;9.90;;;5.63;;
75837;SDS011;64480;52.040;113.502;2023-07-29T17:49:40;13.70;;;6.65;;
75837;SDS011;64480;52.040;113.502;2023-07-29T17:52:43;8.77;;;6.18;;
75837;SDS011;64480;52.040;113.502;2023-07-29T17:55:47;14.15;;;6.03;;
75837;SDS011;64480;52.040;113.502;2023-07-29T17:58:52;11.65;;;6.95;;
75837;SDS011;64480;52.040;113.502;2023-07-29T18:01:56;11.57;;;6.25;;
75837;SDS011;64480;52.040;113.502;2023-07-29T18:05:00;12.25;;;6.80;;
75837;SDS011;64480;52.040;113.502;2023-07-29T18:08:05;11.18;;;7.00;;
75837;SDS011;64480;52.040;113.502;2023-07-29T18:11:10;13.25;;;7.00;;
75837;SDS011;64480;52.040;113.502;2023-07-29T18:14:17;13.30;;;7.35;;
75837;SDS011;64480;52.040;113.502;2023-07-29T18:17:20;13.48;;;6.95;;
75837;SDS011;64480;52.040;113.502;2023-07-29T18:20:29;11.13;;;5.93;;
75837;SDS011;64480;52.040;113.502;2023-07-29T18:23:33;12.77;;;6.38;;